Terminal Aerodrome Forecast
Issued by NWS Boston, MA

Home | Current Version | Previous Version | Text Only | Print | Product List | Glossary On
Versions: 1 2 3 4 5 6 7 8 9 10 11 12 13 14 15 16 17 18 19 20 21
000
FTUS41 KBOX 102110 AAA
TAFBOS
TAF AMD
KBOS 102110Z 1021/1124 30013KT P6SM FEW045
     FM110200 30006KT P6SM FEW250
     FM111600 24004KT P6SM SCT140
     FM112000 21004KT P6SM BKN100=

USA.gov is the U.S. government's official web portal to all federal, state and local government web resources and services.